Aérodrome :
LOGIN :

S'inscrire | Disclaimer

   EN    FR    IT 

 










Légende :    VFR   VFR Marginal   IFR   IFR Intensif   IFR Très Intensif
Visi : 
Plafond : 
>= 8 km
>= 3000ft
5 à 8 km
1000 à 3000 ft
1500m à 5 km
500 à 1000 ft
800 à 1500m
200 à 500 ft
< 800m
< 200 ft
Symboles :   Orages  Brouillard  Fortes neiges  Fortes précipitations  Vent > 20 kt
SIGMETs :   Divers  Orages  Givrage  Turbulence  Onde Orograph.  Cendres Volcan.






- Altitude de l'aérodrome : 235 ft
- Code IATA : BZG


EPBY - Bydgoszcz

DERNIER METAR :
  • 280130Z 33006KT 9999 FEW024 12/09 Q1026

METARs EXPIRÉS :
  • 280100Z 34006KT 9999 FEW040 13/09 Q1026
  • 280030Z 32007KT 9999 FEW034 SCT042 13/08 Q1026
  • 280000Z 30007KT 9999 -RA FEW048 13/08 Q1026
  • 272330Z 29005KT CAVOK 11/08 Q1026
  • 272300Z 25002KT CAVOK 10/06 Q1026

TAF TAF EPBY
Valide du 28 à 00h jusqu'au 29 à 00h UTC


272330Z 2800/2824 32006KT 9999 BKN033
TEMPO 2801/2807 -RA BKN014
BECMG 2810/2812 02010KT
PROB30
TEMPO 2812/2816 5000 SHRA BKN020CB
BECMG 2816/2818 CAVOK



MET'MAP, la Météo Aéronautique d'un coup d'oeil ! - Copyright ORBIFLY Décembre 2007 - Disclaimer

ORBIFLY MET'MAP TEAM :

Programmation & Développement : Alexandra Zaïnal
Sur une idée originale de : Baudouin d'Aumeries
Assistance à la programmation : Marc-Olivier Méhu
Soutien technique & logistique : Manuel Goepfert

Contact : metmap@orbifly.com




SOURCES & CREDITS :

   NOAA